sensor_id;sensor_type;location;lat;lon;timestamp;P1;durP1;ratioP1;P2;durP2;ratioP2
14092;SDS011;7123;49.468;10.992;2023-06-10T00:02:13;7.43;;;5.70;;
14092;SDS011;7123;49.468;10.992;2023-06-10T00:04:40;6.45;;;5.70;;
14092;SDS011;7123;49.468;10.992;2023-06-10T00:07:07;7.90;;;6.25;;
14092;SDS011;7123;49.468;10.992;2023-06-10T00:09:35;8.10;;;6.25;;
14092;SDS011;7123;49.468;10.992;2023-06-10T00:12:06;6.40;;;5.90;;
14092;SDS011;7123;49.468;10.992;2023-06-10T00:14:37;6.25;;;5.68;;
14092;SDS011;7123;49.468;10.992;2023-06-10T00:17:04;6.70;;;6.18;;
14092;SDS011;7123;49.468;10.992;2023-06-10T00:19:38;8.25;;;6.65;;
14092;SDS011;7123;49.468;10.992;2023-06-10T00:22:07;7.88;;;6.20;;
14092;SDS011;7123;49.468;10.992;2023-06-10T00:24:35;6.53;;;6.03;;
14092;SDS011;7123;49.468;10.992;2023-06-10T00:27:02;6.82;;;6.10;;
14092;SDS011;7123;49.468;10.992;2023-06-10T00:29:29;7.43;;;6.72;;
14092;SDS011;7123;49.468;10.992;2023-06-10T00:31:56;6.43;;;5.93;;
14092;SDS011;7123;49.468;10.992;2023-06-10T00:34:24;7.15;;;6.47;;
14092;SDS011;7123;49.468;10.992;2023-06-10T00:36:51;6.88;;;6.20;;
14092;SDS011;7123;49.468;10.992;2023-06-10T00:39:17;6.93;;;6.25;;
14092;SDS011;7123;49.468;10.992;2023-06-10T00:41:44;9.82;;;6.30;;
14092;SDS011;7123;49.468;10.992;2023-06-10T00:44:11;7.07;;;6.45;;
14092;SDS011;7123;49.468;10.992;2023-06-10T00:46:38;7.80;;;6.88;;
14092;SDS011;7123;49.468;10.992;2023-06-10T00:49:06;13.00;;;6.97;;
14092;SDS011;7123;49.468;10.992;2023-06-10T00:51:34;8.02;;;6.25;;
14092;SDS011;7123;49.468;10.992;2023-06-10T00:54:02;7.57;;;6.75;;
14092;SDS011;7123;49.468;10.992;2023-06-10T00:56:29;10.90;;;6.57;;
14092;SDS011;7123;49.468;10.992;2023-06-10T00:58:56;6.63;;;6.05;;
14092;SDS011;7123;49.468;10.992;2023-06-10T01:01:23;9.05;;;6.10;;
14092;SDS011;7123;49.468;10.992;2023-06-10T01:03:51;7.13;;;6.40;;
14092;SDS011;7123;49.468;10.992;2023-06-10T01:06:20;7.22;;;6.47;;
14092;SDS011;7123;49.468;10.992;2023-06-10T01:09:07;7.88;;;6.53;;
14092;SDS011;7123;49.468;10.992;2023-06-10T01:14:35;7.72;;;6.53;;
14092;SDS011;7123;49.468;10.992;2023-06-10T01:17:02;7.22;;;6.43;;
14092;SDS011;7123;49.468;10.992;2023-06-10T01:19:31;7.95;;;6.75;;
14092;SDS011;7123;49.468;10.992;2023-06-10T01:22:00;6.90;;;6.25;;
14092;SDS011;7123;49.468;10.992;2023-06-10T01:24:27;6.20;;;5.65;;
14092;SDS011;7123;49.468;10.992;2023-06-10T01:26:55;7.20;;;6.20;;
14092;SDS011;7123;49.468;10.992;2023-06-10T01:29:33;7.30;;;6.63;;
14092;SDS011;7123;49.468;10.992;2023-06-10T01:32:12;6.63;;;6.13;;
14092;SDS011;7123;49.468;10.992;2023-06-10T01:34:45;8.35;;;6.30;;
14092;SDS011;7123;49.468;10.992;2023-06-10T01:37:13;6.78;;;6.18;;
14092;SDS011;7123;49.468;10.992;2023-06-10T01:39:43;7.43;;;6.70;;
14092;SDS011;7123;49.468;10.992;2023-06-10T01:42:13;6.60;;;6.10;;
14092;SDS011;7123;49.468;10.992;2023-06-10T01:44:40;7.18;;;6.35;;
14092;SDS011;7123;49.468;10.992;2023-06-10T01:47:08;9.65;;;6.60;;
14092;SDS011;7123;49.468;10.992;2023-06-10T01:49:35;7.07;;;6.07;;
14092;SDS011;7123;49.468;10.992;2023-06-10T01:52:02;9.50;;;6.20;;
14092;SDS011;7123;49.468;10.992;2023-06-10T01:54:29;6.93;;;6.28;;
14092;SDS011;7123;49.468;10.992;2023-06-10T01:56:55;8.07;;;6.28;;
14092;SDS011;7123;49.468;10.992;2023-06-10T01:59:22;6.45;;;5.85;;
14092;SDS011;7123;49.468;10.992;2023-06-10T02:01:49;7.00;;;6.30;;
14092;SDS011;7123;49.468;10.992;2023-06-10T02:04:16;6.68;;;6.03;;
14092;SDS011;7123;49.468;10.992;2023-06-10T02:06:42;8.07;;;6.35;;
14092;SDS011;7123;49.468;10.992;2023-06-10T02:09:09;6.68;;;6.03;;
14092;SDS011;7123;49.468;10.992;2023-06-10T02:11:36;10.40;;;6.50;;
14092;SDS011;7123;49.468;10.992;2023-06-10T02:14:03;7.22;;;5.80;;
14092;SDS011;7123;49.468;10.992;2023-06-10T02:16:30;8.52;;;6.53;;
14092;SDS011;7123;49.468;10.992;2023-06-10T02:18:57;7.22;;;6.43;;
14092;SDS011;7123;49.468;10.992;2023-06-10T02:21:24;7.50;;;6.80;;
14092;SDS011;7123;49.468;10.992;2023-06-10T02:23:51;7.35;;;6.70;;
14092;SDS011;7123;49.468;10.992;2023-06-10T02:26:19;7.95;;;7.10;;
14092;SDS011;7123;49.468;10.992;2023-06-10T02:28:46;6.35;;;5.75;;
14092;SDS011;7123;49.468;10.992;2023-06-10T02:31:13;9.18;;;7.03;;
14092;SDS011;7123;49.468;10.992;2023-06-10T02:33:40;6.93;;;6.38;;
14092;SDS011;7123;49.468;10.992;2023-06-10T02:36:08;7.95;;;7.22;;
14092;SDS011;7123;49.468;10.992;2023-06-10T02:38:39;6.85;;;6.25;;
14092;SDS011;7123;49.468;10.992;2023-06-10T02:41:06;7.28;;;6.57;;
14092;SDS011;7123;49.468;10.992;2023-06-10T02:43:33;6.65;;;5.82;;
14092;SDS011;7123;49.468;10.992;2023-06-10T02:46:00;7.35;;;6.75;;
14092;SDS011;7123;49.468;10.992;2023-06-10T02:48:27;8.07;;;6.95;;
14092;SDS011;7123;49.468;10.992;2023-06-10T02:50:54;7.20;;;6.50;;
14092;SDS011;7123;49.468;10.992;2023-06-10T02:53:22;9.25;;;7.15;;
14092;SDS011;7123;49.468;10.992;2023-06-10T02:55:48;7.43;;;6.63;;
14092;SDS011;7123;49.468;10.992;2023-06-10T02:58:15;7.03;;;6.35;;
14092;SDS011;7123;49.468;10.992;2023-06-10T03:00:42;7.90;;;6.43;;
14092;SDS011;7123;49.468;10.992;2023-06-10T03:03:09;6.87;;;6.27;;
14092;SDS011;7123;49.468;10.992;2023-06-10T03:05:37;10.18;;;7.20;;
14092;SDS011;7123;49.468;10.992;2023-06-10T03:08:03;8.27;;;7.33;;
14092;SDS011;7123;49.468;10.992;2023-06-10T03:10:30;7.00;;;6.38;;
14092;SDS011;7123;49.468;10.992;2023-06-10T03:12:59;8.17;;;7.37;;
14092;SDS011;7123;49.468;10.992;2023-06-10T03:15:25;8.27;;;6.83;;
14092;SDS011;7123;49.468;10.992;2023-06-10T03:17:54;9.07;;;7.27;;
14092;SDS011;7123;49.468;10.992;2023-06-10T03:20:21;8.07;;;7.27;;
14092;SDS011;7123;49.468;10.992;2023-06-10T03:22:48;7.43;;;6.73;;
14092;SDS011;7123;49.468;10.992;2023-06-10T03:25:15;7.10;;;6.37;;
14092;SDS011;7123;49.468;10.992;2023-06-10T03:27:42;7.93;;;7.33;;
14092;SDS011;7123;49.468;10.992;2023-06-10T03:30:09;7.40;;;6.50;;
14092;SDS011;7123;49.468;10.992;2023-06-10T03:32:37;6.80;;;6.13;;
14092;SDS011;7123;49.468;10.992;2023-06-10T03:35:04;7.17;;;6.47;;
14092;SDS011;7123;49.468;10.992;2023-06-10T03:37:33;6.43;;;5.82;;
14092;SDS011;7123;49.468;10.992;2023-06-10T03:40:00;7.07;;;6.40;;
14092;SDS011;7123;49.468;10.992;2023-06-10T03:42:26;7.80;;;6.70;;
14092;SDS011;7123;49.468;10.992;2023-06-10T03:44:53;6.93;;;6.33;;
14092;SDS011;7123;49.468;10.992;2023-06-10T03:47:21;6.83;;;5.80;;
14092;SDS011;7123;49.468;10.992;2023-06-10T03:49:48;7.10;;;6.47;;
14092;SDS011;7123;49.468;10.992;2023-06-10T03:52:14;7.87;;;6.00;;
14092;SDS011;7123;49.468;10.992;2023-06-10T03:54:41;6.57;;;6.07;;
14092;SDS011;7123;49.468;10.992;2023-06-10T03:57:08;7.43;;;6.33;;
14092;SDS011;7123;49.468;10.992;2023-06-10T03:59:35;8.75;;;6.82;;
14092;SDS011;7123;49.468;10.992;2023-06-10T04:02:02;6.70;;;6.20;;
14092;SDS011;7123;49.468;10.992;2023-06-10T04:04:31;8.53;;;6.87;;
14092;SDS011;7123;49.468;10.992;2023-06-10T04:06:57;7.78;;;7.07;;
14092;SDS011;7123;49.468;10.992;2023-06-10T04:09:25;7.80;;;6.90;;
14092;SDS011;7123;49.468;10.992;2023-06-10T04:11:51;8.27;;;7.57;;
14092;SDS011;7123;49.468;10.992;2023-06-10T04:14:18;8.00;;;7.30;;
14092;SDS011;7123;49.468;10.992;2023-06-10T04:16:45;7.33;;;6.63;;
14092;SDS011;7123;49.468;10.992;2023-06-10T04:19:11;7.70;;;6.97;;
14092;SDS011;7123;49.468;10.992;2023-06-10T04:21:38;8.47;;;6.87;;
14092;SDS011;7123;49.468;10.992;2023-06-10T04:24:05;7.30;;;6.70;;
14092;SDS011;7123;49.468;10.992;2023-06-10T04:26:32;8.10;;;7.40;;
14092;SDS011;7123;49.468;10.992;2023-06-10T04:28:59;9.50;;;6.63;;
14092;SDS011;7123;49.468;10.992;2023-06-10T04:31:26;7.87;;;6.87;;
14092;SDS011;7123;49.468;10.992;2023-06-10T04:33:54;7.30;;;6.70;;
14092;SDS011;7123;49.468;10.992;2023-06-10T04:36:21;6.67;;;6.17;;
14092;SDS011;7123;49.468;10.992;2023-06-10T04:38:47;7.43;;;6.70;;
14092;SDS011;7123;49.468;10.992;2023-06-10T04:41:14;8.63;;;6.73;;
14092;SDS011;7123;49.468;10.992;2023-06-10T04:43:41;7.13;;;6.53;;
14092;SDS011;7123;49.468;10.992;2023-06-10T04:46:08;9.00;;;7.47;;
14092;SDS011;7123;49.468;10.992;2023-06-10T04:48:36;7.47;;;6.77;;
14092;SDS011;7123;49.468;10.992;2023-06-10T04:51:03;7.40;;;6.80;;
14092;SDS011;7123;49.468;10.992;2023-06-10T04:53:31;7.63;;;6.70;;
14092;SDS011;7123;49.468;10.992;2023-06-10T04:55:58;8.03;;;7.03;;
14092;SDS011;7123;49.468;10.992;2023-06-10T04:58:25;8.32;;;7.57;;
14092;SDS011;7123;49.468;10.992;2023-06-10T05:00:52;7.33;;;6.67;;
14092;SDS011;7123;49.468;10.992;2023-06-10T05:03:18;7.97;;;7.07;;
14092;SDS011;7123;49.468;10.992;2023-06-10T05:05:45;7.17;;;6.57;;
14092;SDS011;7123;49.468;10.992;2023-06-10T05:08:12;8.03;;;7.33;;
14092;SDS011;7123;49.468;10.992;2023-06-10T05:10:39;8.60;;;7.87;;
14092;SDS011;7123;49.468;10.992;2023-06-10T05:13:05;8.98;;;7.70;;
14092;SDS011;7123;49.468;10.992;2023-06-10T05:15:32;7.77;;;7.17;;
14092;SDS011;7123;49.468;10.992;2023-06-10T05:17:59;8.63;;;7.70;;
14092;SDS011;7123;49.468;10.992;2023-06-10T05:20:29;10.77;;;9.07;;
14092;SDS011;7123;49.468;10.992;2023-06-10T05:22:55;10.00;;;8.30;;
14092;SDS011;7123;49.468;10.992;2023-06-10T05:25:22;9.70;;;8.80;;
14092;SDS011;7123;49.468;10.992;2023-06-10T05:27:49;9.73;;;8.68;;
14092;SDS011;7123;49.468;10.992;2023-06-10T05:30:16;14.13;;;9.90;;
14092;SDS011;7123;49.468;10.992;2023-06-10T05:32:44;11.20;;;10.00;;
14092;SDS011;7123;49.468;10.992;2023-06-10T05:35:11;11.87;;;9.43;;
14092;SDS011;7123;49.468;10.992;2023-06-10T05:37:38;10.07;;;9.17;;
14092;SDS011;7123;49.468;10.992;2023-06-10T05:40:05;9.57;;;8.50;;
14092;SDS011;7123;49.468;10.992;2023-06-10T05:42:32;9.40;;;8.40;;
14092;SDS011;7123;49.468;10.992;2023-06-10T05:44:59;8.30;;;7.50;;
14092;SDS011;7123;49.468;10.992;2023-06-10T05:47:26;8.27;;;7.57;;
14092;SDS011;7123;49.468;10.992;2023-06-10T05:49:53;7.73;;;6.87;;
14092;SDS011;7123;49.468;10.992;2023-06-10T05:52:20;7.28;;;6.60;;
14092;SDS011;7123;49.468;10.992;2023-06-10T05:54:46;8.40;;;6.97;;
14092;SDS011;7123;49.468;10.992;2023-06-10T05:57:13;7.33;;;6.40;;
14092;SDS011;7123;49.468;10.992;2023-06-10T05:59:40;7.97;;;7.10;;
14092;SDS011;7123;49.468;10.992;2023-06-10T06:02:07;7.30;;;6.70;;
14092;SDS011;7123;49.468;10.992;2023-06-10T06:04:34;7.77;;;7.10;;
14092;SDS011;7123;49.468;10.992;2023-06-10T06:07:01;7.97;;;7.27;;
14092;SDS011;7123;49.468;10.992;2023-06-10T06:09:27;8.20;;;7.40;;
14092;SDS011;7123;49.468;10.992;2023-06-10T06:11:54;6.77;;;6.17;;
14092;SDS011;7123;49.468;10.992;2023-06-10T06:14:21;7.17;;;6.57;;
14092;SDS011;7123;49.468;10.992;2023-06-10T06:16:47;6.90;;;6.30;;
14092;SDS011;7123;49.468;10.992;2023-06-10T06:19:14;6.57;;;5.97;;
14092;SDS011;7123;49.468;10.992;2023-06-10T06:21:42;7.07;;;6.37;;
14092;SDS011;7123;49.468;10.992;2023-06-10T06:24:08;6.90;;;6.20;;
14092;SDS011;7123;49.468;10.992;2023-06-10T06:26:35;6.77;;;6.27;;
14092;SDS011;7123;49.468;10.992;2023-06-10T06:29:02;7.40;;;6.70;;
14092;SDS011;7123;49.468;10.992;2023-06-10T06:31:29;6.63;;;6.13;;
14092;SDS011;7123;49.468;10.992;2023-06-10T06:33:56;7.10;;;6.50;;
14092;SDS011;7123;49.468;10.992;2023-06-10T06:36:23;6.90;;;6.40;;
14092;SDS011;7123;49.468;10.992;2023-06-10T06:38:49;7.07;;;6.30;;
14092;SDS011;7123;49.468;10.992;2023-06-10T06:41:16;6.63;;;6.13;;
14092;SDS011;7123;49.468;10.992;2023-06-10T06:43:43;7.50;;;6.80;;
14092;SDS011;7123;49.468;10.992;2023-06-10T06:46:10;7.47;;;6.83;;
14092;SDS011;7123;49.468;10.992;2023-06-10T06:48:36;7.10;;;6.40;;
14092;SDS011;7123;49.468;10.992;2023-06-10T06:51:03;7.10;;;6.40;;
14092;SDS011;7123;49.468;10.992;2023-06-10T06:53:30;7.03;;;6.53;;
14092;SDS011;7123;49.468;10.992;2023-06-10T06:55:57;8.17;;;7.03;;
14092;SDS011;7123;49.468;10.992;2023-06-10T06:58:24;7.03;;;6.32;;
14092;SDS011;7123;49.468;10.992;2023-06-10T07:00:51;6.70;;;6.10;;
14092;SDS011;7123;49.468;10.992;2023-06-10T07:03:17;6.82;;;6.32;;
14092;SDS011;7123;49.468;10.992;2023-06-10T07:05:44;7.40;;;6.80;;
14092;SDS011;7123;49.468;10.992;2023-06-10T07:08:11;7.72;;;7.13;;
14092;SDS011;7123;49.468;10.992;2023-06-10T07:10:38;7.13;;;6.43;;
14092;SDS011;7123;49.468;10.992;2023-06-10T07:13:05;8.43;;;7.68;;
14092;SDS011;7123;49.468;10.992;2023-06-10T07:15:32;7.03;;;6.53;;
14092;SDS011;7123;49.468;10.992;2023-06-10T07:17:59;6.78;;;6.28;;
14092;SDS011;7123;49.468;10.992;2023-06-10T07:20:26;7.80;;;7.10;;
14092;SDS011;7123;49.468;10.992;2023-06-10T07:22:52;7.18;;;6.57;;
14092;SDS011;7123;49.468;10.992;2023-06-10T07:25:19;7.03;;;6.22;;
14092;SDS011;7123;49.468;10.992;2023-06-10T07:27:46;7.10;;;6.50;;
14092;SDS011;7123;49.468;10.992;2023-06-10T07:30:13;7.90;;;7.33;;
14092;SDS011;7123;49.468;10.992;2023-06-10T07:32:40;7.05;;;6.38;;
14092;SDS011;7123;49.468;10.992;2023-06-10T07:35:08;6.75;;;6.15;;
14092;SDS011;7123;49.468;10.992;2023-06-10T07:37:37;6.93;;;6.33;;
14092;SDS011;7123;49.468;10.992;2023-06-10T07:40:04;7.30;;;6.65;;
14092;SDS011;7123;49.468;10.992;2023-06-10T07:42:34;6.53;;;6.00;;
14092;SDS011;7123;49.468;10.992;2023-06-10T07:45:02;6.50;;;6.00;;
14092;SDS011;7123;49.468;10.992;2023-06-10T07:47:30;5.95;;;5.40;;
14092;SDS011;7123;49.468;10.992;2023-06-10T07:49:59;5.85;;;5.45;;
14092;SDS011;7123;49.468;10.992;2023-06-10T07:52:26;6.00;;;5.50;;
14092;SDS011;7123;49.468;10.992;2023-06-10T07:54:54;6.00;;;5.60;;
14092;SDS011;7123;49.468;10.992;2023-06-10T07:57:21;5.78;;;5.38;;
14092;SDS011;7123;49.468;10.992;2023-06-10T07:59:48;5.75;;;5.25;;
14092;SDS011;7123;49.468;10.992;2023-06-10T08:02:15;5.65;;;5.20;;
14092;SDS011;7123;49.468;10.992;2023-06-10T08:04:41;6.00;;;5.45;;
14092;SDS011;7123;49.468;10.992;2023-06-10T08:07:08;6.30;;;5.80;;
14092;SDS011;7123;49.468;10.992;2023-06-10T08:09:35;5.45;;;5.05;;
14092;SDS011;7123;49.468;10.992;2023-06-10T08:12:02;5.80;;;5.40;;
14092;SDS011;7123;49.468;10.992;2023-06-10T08:14:29;6.05;;;5.55;;
14092;SDS011;7123;49.468;10.992;2023-06-10T08:16:56;5.75;;;5.30;;
14092;SDS011;7123;49.468;10.992;2023-06-10T08:19:23;5.15;;;4.82;;
14092;SDS011;7123;49.468;10.992;2023-06-10T08:21:49;5.57;;;5.07;;
14092;SDS011;7123;49.468;10.992;2023-06-10T08:24:16;5.30;;;4.88;;
14092;SDS011;7123;49.468;10.992;2023-06-10T08:26:45;5.63;;;4.60;;
14092;SDS011;7123;49.468;10.992;2023-06-10T08:29:12;5.10;;;4.70;;
14092;SDS011;7123;49.468;10.992;2023-06-10T08:31:43;3.92;;;3.72;;
14092;SDS011;7123;49.468;10.992;2023-06-10T08:34:10;3.95;;;3.60;;
14092;SDS011;7123;49.468;10.992;2023-06-10T08:36:38;4.25;;;3.95;;
14092;SDS011;7123;49.468;10.992;2023-06-10T08:39:04;3.97;;;3.78;;
14092;SDS011;7123;49.468;10.992;2023-06-10T08:41:34;4.22;;;3.92;;
14092;SDS011;7123;49.468;10.992;2023-06-10T08:46:51;4.47;;;4.07;;
14092;SDS011;7123;49.468;10.992;2023-06-10T08:49:19;4.60;;;3.92;;
14092;SDS011;7123;49.468;10.992;2023-06-10T08:51:58;4.10;;;3.80;;
14092;SDS011;7123;49.468;10.992;2023-06-10T08:54:27;3.78;;;3.58;;
14092;SDS011;7123;49.468;10.992;2023-06-10T08:56:58;4.82;;;4.40;;
14092;SDS011;7123;49.468;10.992;2023-06-10T08:59:26;3.95;;;3.75;;
14092;SDS011;7123;49.468;10.992;2023-06-10T09:01:54;9.80;;;4.10;;
14092;SDS011;7123;49.468;10.992;2023-06-10T09:04:21;4.10;;;3.70;;
14092;SDS011;7123;49.468;10.992;2023-06-10T09:06:50;3.67;;;3.42;;
14092;SDS011;7123;49.468;10.992;2023-06-10T09:09:18;3.55;;;3.25;;
14092;SDS011;7123;49.468;10.992;2023-06-10T09:11:46;3.92;;;3.72;;
14092;SDS011;7123;49.468;10.992;2023-06-10T09:14:13;4.15;;;3.85;;
14092;SDS011;7123;49.468;10.992;2023-06-10T09:16:40;5.00;;;3.72;;
14092;SDS011;7123;49.468;10.992;2023-06-10T09:19:08;3.92;;;3.63;;
14092;SDS011;7123;49.468;10.992;2023-06-10T09:21:35;4.38;;;4.07;;
14092;SDS011;7123;49.468;10.992;2023-06-10T09:24:05;4.38;;;4.07;;
14092;SDS011;7123;49.468;10.992;2023-06-10T09:26:32;4.47;;;3.92;;
14092;SDS011;7123;49.468;10.992;2023-06-10T09:29:03;3.97;;;3.78;;
14092;SDS011;7123;49.468;10.992;2023-06-10T09:31:34;4.10;;;3.80;;
14092;SDS011;7123;49.468;10.992;2023-06-10T09:34:05;3.95;;;3.75;;
14092;SDS011;7123;49.468;10.992;2023-06-10T09:36:40;4.05;;;3.80;;
14092;SDS011;7123;49.468;10.992;2023-06-10T09:39:14;4.40;;;4.00;;
14092;SDS011;7123;49.468;10.992;2023-06-10T09:41:43;4.90;;;3.80;;
14092;SDS011;7123;49.468;10.992;2023-06-10T09:44:20;4.13;;;3.78;;
14092;SDS011;7123;49.468;10.992;2023-06-10T09:46:48;4.65;;;4.00;;
14092;SDS011;7123;49.468;10.992;2023-06-10T09:49:17;4.13;;;3.85;;
14092;SDS011;7123;49.468;10.992;2023-06-10T09:51:50;4.32;;;4.07;;
14092;SDS011;7123;49.468;10.992;2023-06-10T09:54:21;4.22;;;4.03;;
14092;SDS011;7123;49.468;10.992;2023-06-10T09:56:49;4.35;;;4.05;;
14092;SDS011;7123;49.468;10.992;2023-06-10T09:59:30;4.45;;;4.15;;
14092;SDS011;7123;49.468;10.992;2023-06-10T10:01:58;4.72;;;4.32;;
14092;SDS011;7123;49.468;10.992;2023-06-10T10:04:26;4.13;;;3.83;;
14092;SDS011;7123;49.468;10.992;2023-06-10T10:06:55;4.50;;;4.07;;
14092;SDS011;7123;49.468;10.992;2023-06-10T10:09:22;4.55;;;4.25;;
14092;SDS011;7123;49.468;10.992;2023-06-10T10:11:48;4.65;;;4.35;;
14092;SDS011;7123;49.468;10.992;2023-06-10T10:14:17;4.70;;;4.30;;
14092;SDS011;7123;49.468;10.992;2023-06-10T10:16:46;4.45;;;4.20;;
14092;SDS011;7123;49.468;10.992;2023-06-10T10:19:16;4.18;;;3.90;;
14092;SDS011;7123;49.468;10.992;2023-06-10T10:21:54;4.97;;;4.05;;
14092;SDS011;7123;49.468;10.992;2023-06-10T10:24:30;4.38;;;4.10;;
14092;SDS011;7123;49.468;10.992;2023-06-10T10:27:07;4.43;;;4.13;;
14092;SDS011;7123;49.468;10.992;2023-06-10T10:29:44;4.13;;;3.85;;
14092;SDS011;7123;49.468;10.992;2023-06-10T10:32:13;4.18;;;3.88;;
14092;SDS011;7123;49.468;10.992;2023-06-10T10:34:43;4.32;;;4.00;;
14092;SDS011;7123;49.468;10.992;2023-06-10T10:37:14;4.22;;;3.88;;
14092;SDS011;7123;49.468;10.992;2023-06-10T10:39:40;4.20;;;4.00;;
14092;SDS011;7123;49.468;10.992;2023-06-10T10:42:08;4.35;;;3.95;;
14092;SDS011;7123;49.468;10.992;2023-06-10T10:44:38;4.63;;;4.32;;
14092;SDS011;7123;49.468;10.992;2023-06-10T10:47:08;4.72;;;4.00;;
14092;SDS011;7123;49.468;10.992;2023-06-10T10:49:36;4.38;;;4.07;;
14092;SDS011;7123;49.468;10.992;2023-06-10T10:52:04;3.88;;;3.63;;
14092;SDS011;7123;49.468;10.992;2023-06-10T10:54:34;4.10;;;3.70;;
14092;SDS011;7123;49.468;10.992;2023-06-10T10:57:14;4.10;;;3.75;;
14092;SDS011;7123;49.468;10.992;2023-06-10T10:59:43;4.72;;;4.05;;
14092;SDS011;7123;49.468;10.992;2023-06-10T11:04:48;4.15;;;3.85;;
14092;SDS011;7123;49.468;10.992;2023-06-10T11:07:21;4.80;;;4.40;;
14092;SDS011;7123;49.468;10.992;2023-06-10T11:10:06;3.97;;;3.78;;
14092;SDS011;7123;49.468;10.992;2023-06-10T11:15:12;4.50;;;4.20;;
14092;SDS011;7123;49.468;10.992;2023-06-10T11:31:19;4.80;;;4.50;;
14092;SDS011;7123;49.468;10.992;2023-06-10T11:33:53;4.50;;;4.20;;
14092;SDS011;7123;49.468;10.992;2023-06-10T11:36:31;4.50;;;4.22;;
14092;SDS011;7123;49.468;10.992;2023-06-10T11:39:04;4.88;;;4.43;;
14092;SDS011;7123;49.468;10.992;2023-06-10T11:41:32;4.68;;;4.38;;
14092;SDS011;7123;49.468;10.992;2023-06-10T11:44:04;5.13;;;4.72;;
14092;SDS011;7123;49.468;10.992;2023-06-10T11:46:34;4.63;;;4.30;;
14092;SDS011;7123;49.468;10.992;2023-06-10T11:49:01;4.60;;;4.30;;
14092;SDS011;7123;49.468;10.992;2023-06-10T11:51:31;4.57;;;4.25;;
14092;SDS011;7123;49.468;10.992;2023-06-10T11:54:00;4.43;;;4.03;;
14092;SDS011;7123;49.468;10.992;2023-06-10T11:56:27;4.18;;;3.88;;
14092;SDS011;7123;49.468;10.992;2023-06-10T11:58:56;3.47;;;3.30;;
14092;SDS011;7123;49.468;10.992;2023-06-10T12:01:27;3.75;;;3.55;;
14092;SDS011;7123;49.468;10.992;2023-06-10T12:04:04;4.18;;;3.88;;
14092;SDS011;7123;49.468;10.992;2023-06-10T12:06:51;4.32;;;3.72;;
14092;SDS011;7123;49.468;10.992;2023-06-10T12:09:20;3.70;;;3.47;;
14092;SDS011;7123;49.468;10.992;2023-06-10T12:11:54;3.70;;;3.50;;
14092;SDS011;7123;49.468;10.992;2023-06-10T12:17:22;3.78;;;3.55;;
14092;SDS011;7123;49.468;10.992;2023-06-10T12:20:04;3.65;;;3.45;;
14092;SDS011;7123;49.468;10.992;2023-06-10T12:22:40;3.78;;;3.58;;
14092;SDS011;7123;49.468;10.992;2023-06-10T12:25:09;3.80;;;3.60;;
14092;SDS011;7123;49.468;10.992;2023-06-10T12:27:38;3.65;;;3.45;;
14092;SDS011;7123;49.468;10.992;2023-06-10T12:30:07;3.58;;;3.38;;
14092;SDS011;7123;49.468;10.992;2023-06-10T12:32:44;3.78;;;3.58;;
14092;SDS011;7123;49.468;10.992;2023-06-10T12:35:13;3.38;;;3.17;;
14092;SDS011;7123;49.468;10.992;2023-06-10T12:40:31;6.60;;;3.88;;
14092;SDS011;7123;49.468;10.992;2023-06-10T12:43:06;3.55;;;3.35;;
14092;SDS011;7123;49.468;10.992;2023-06-10T12:45:34;3.50;;;3.20;;
14092;SDS011;7123;49.468;10.992;2023-06-10T12:48:10;3.92;;;3.63;;
14092;SDS011;7123;49.468;10.992;2023-06-10T12:50:53;3.33;;;3.13;;
14092;SDS011;7123;49.468;10.992;2023-06-10T12:53:21;3.45;;;3.25;;
14092;SDS011;7123;49.468;10.992;2023-06-10T12:55:49;3.50;;;3.30;;
14092;SDS011;7123;49.468;10.992;2023-06-10T12:58:18;3.80;;;3.40;;
14092;SDS011;7123;49.468;10.992;2023-06-10T13:00:45;3.60;;;3.40;;
14092;SDS011;7123;49.468;10.992;2023-06-10T13:03:14;4.00;;;3.78;;
14092;SDS011;7123;49.468;10.992;2023-06-10T13:05:41;3.63;;;3.42;;
14092;SDS011;7123;49.468;10.992;2023-06-10T13:08:08;3.58;;;3.38;;
14092;SDS011;7123;49.468;10.992;2023-06-10T13:10:36;3.70;;;3.47;;
14092;SDS011;7123;49.468;10.992;2023-06-10T13:13:03;3.60;;;3.40;;
14092;SDS011;7123;49.468;10.992;2023-06-10T13:15:32;3.75;;;3.55;;
14092;SDS011;7123;49.468;10.992;2023-06-10T13:18:06;3.78;;;3.47;;
14092;SDS011;7123;49.468;10.992;2023-06-10T13:20:33;3.75;;;3.47;;
14092;SDS011;7123;49.468;10.992;2023-06-10T13:23:00;3.88;;;3.53;;
14092;SDS011;7123;49.468;10.992;2023-06-10T13:25:27;6.97;;;3.60;;
14092;SDS011;7123;49.468;10.992;2023-06-10T13:27:54;3.30;;;3.17;;
14092;SDS011;7123;49.468;10.992;2023-06-10T13:30:21;3.10;;;2.90;;
14092;SDS011;7123;49.468;10.992;2023-06-10T13:32:48;3.60;;;3.30;;
14092;SDS011;7123;49.468;10.992;2023-06-10T13:35:15;4.53;;;3.13;;
14092;SDS011;7123;49.468;10.992;2023-06-10T13:37:42;3.42;;;3.22;;
14092;SDS011;7123;49.468;10.992;2023-06-10T13:40:09;3.30;;;3.10;;
14092;SDS011;7123;49.468;10.992;2023-06-10T13:42:36;3.22;;;3.03;;
14092;SDS011;7123;49.468;10.992;2023-06-10T13:45:03;3.08;;;2.97;;
14092;SDS011;7123;49.468;10.992;2023-06-10T13:47:32;2.90;;;2.70;;
14092;SDS011;7123;49.468;10.992;2023-06-10T13:49:59;3.70;;;3.40;;
14092;SDS011;7123;49.468;10.992;2023-06-10T13:52:25;3.00;;;2.90;;
14092;SDS011;7123;49.468;10.992;2023-06-10T13:54:52;3.08;;;2.85;;
14092;SDS011;7123;49.468;10.992;2023-06-10T13:57:19;3.30;;;2.85;;
14092;SDS011;7123;49.468;10.992;2023-06-10T13:59:45;3.20;;;2.97;;
14092;SDS011;7123;49.468;10.992;2023-06-10T14:02:13;3.10;;;2.90;;
14092;SDS011;7123;49.468;10.992;2023-06-10T14:04:40;3.25;;;2.75;;
14092;SDS011;7123;49.468;10.992;2023-06-10T14:07:06;3.85;;;2.72;;
14092;SDS011;7123;49.468;10.992;2023-06-10T14:09:33;2.92;;;2.58;;
14092;SDS011;7123;49.468;10.992;2023-06-10T14:12:00;2.53;;;2.38;;
14092;SDS011;7123;49.468;10.992;2023-06-10T14:14:28;2.80;;;2.70;;
14092;SDS011;7123;49.468;10.992;2023-06-10T14:16:56;2.60;;;2.50;;
14092;SDS011;7123;49.468;10.992;2023-06-10T14:19:23;2.33;;;2.22;;
14092;SDS011;7123;49.468;10.992;2023-06-10T14:21:50;2.83;;;2.65;;
14092;SDS011;7123;49.468;10.992;2023-06-10T14:24:16;5.45;;;2.60;;
14092;SDS011;7123;49.468;10.992;2023-06-10T14:26:43;3.15;;;2.40;;
14092;SDS011;7123;49.468;10.992;2023-06-10T14:29:10;6.10;;;2.55;;
14092;SDS011;7123;49.468;10.992;2023-06-10T14:31:40;2.88;;;2.78;;
14092;SDS011;7123;49.468;10.992;2023-06-10T14:34:07;3.10;;;2.90;;
14092;SDS011;7123;49.468;10.992;2023-06-10T14:36:35;2.95;;;2.80;;
14092;SDS011;7123;49.468;10.992;2023-06-10T14:39:03;3.28;;;3.03;;
14092;SDS011;7123;49.468;10.992;2023-06-10T14:41:30;8.40;;;2.95;;
14092;SDS011;7123;49.468;10.992;2023-06-10T14:43:57;8.00;;;3.28;;
14092;SDS011;7123;49.468;10.992;2023-06-10T14:46:25;4.35;;;2.90;;
14092;SDS011;7123;49.468;10.992;2023-06-10T14:48:52;3.95;;;2.85;;
14092;SDS011;7123;49.468;10.992;2023-06-10T14:51:18;2.53;;;2.35;;
14092;SDS011;7123;49.468;10.992;2023-06-10T14:53:47;2.67;;;2.58;;
14092;SDS011;7123;49.468;10.992;2023-06-10T14:56:13;2.70;;;2.60;;
14092;SDS011;7123;49.468;10.992;2023-06-10T14:58:40;2.28;;;2.17;;
14092;SDS011;7123;49.468;10.992;2023-06-10T15:01:07;2.38;;;2.28;;
14092;SDS011;7123;49.468;10.992;2023-06-10T15:03:34;2.60;;;2.38;;
14092;SDS011;7123;49.468;10.992;2023-06-10T15:06:01;2.28;;;2.17;;
14092;SDS011;7123;49.468;10.992;2023-06-10T15:08:28;2.53;;;2.33;;
14092;SDS011;7123;49.468;10.992;2023-06-10T15:10:54;2.70;;;2.50;;
14092;SDS011;7123;49.468;10.992;2023-06-10T15:13:23;2.50;;;2.40;;
14092;SDS011;7123;49.468;10.992;2023-06-10T15:15:50;2.60;;;2.50;;
14092;SDS011;7123;49.468;10.992;2023-06-10T15:18:17;2.88;;;2.55;;
14092;SDS011;7123;49.468;10.992;2023-06-10T15:20:44;2.75;;;2.65;;
14092;SDS011;7123;49.468;10.992;2023-06-10T15:23:10;2.80;;;2.60;;
14092;SDS011;7123;49.468;10.992;2023-06-10T15:25:37;2.55;;;2.45;;